Time;durP1;ratioP1;P1;durP2;ratioP2;P2;SDS_P1;SDS_P2;PMS_P1;PMS_P2;Temp;Humidity;BMP_temperature;BMP_pressure;BME280_temperature;BME280_humidity;BME280_pressure;Samples;Min_cycle;Max_cycle;Signal;HPM_P1;HPM_P2
2023/12/25 00:00:49;;;;;;;8.57;1.80;;;13.50;99.90;;;;;;5059651;28;20105;-36
2023/12/25 00:03:15;;;;;;;6.70;1.83;;;13.50;99.90;;;;;;5059810;28;20035;-36
2023/12/25 00:05:41;;;;;;;5.40;1.63;;;13.50;99.90;;;;;;5059650;28;20143;-36
2023/12/25 00:08:06;;;;;;;7.47;2.30;;;13.50;99.90;;;;;;5058381;28;20021;-36
2023/12/25 00:10:32;;;;;;;5.43;1.77;;;13.50;99.90;;;;;;5059654;28;20365;-37
2023/12/25 00:12:58;;;;;;;4.75;1.30;;;13.50;99.90;;;;;;5059561;28;20021;-40
2023/12/25 00:15:23;;;;;;;7.05;1.92;;;13.50;99.90;;;;;;5058978;28;20598;-37
2023/12/25 00:17:49;;;;;;;6.35;1.63;;;13.50;99.90;;;;;;5059438;28;20062;-37
2023/12/25 00:20:14;;;;;;;6.95;1.90;;;13.50;99.90;;;;;;5060818;28;20564;-37
2023/12/25 00:22:40;;;;;;;5.10;1.77;;;13.40;99.90;;;;;;5061539;28;20039;-38
2023/12/25 00:25:06;;;;;;;5.70;1.90;;;13.40;99.90;;;;;;5062207;28;20133;-37
2023/12/25 00:27:31;;;;;;;5.78;1.38;;;13.40;99.90;;;;;;5062286;28;20050;-38
2023/12/25 00:29:57;;;;;;;6.03;1.85;;;13.40;99.90;;;;;;5060969;28;20119;-38
2023/12/25 00:32:22;;;;;;;9.77;2.45;;;13.40;99.90;;;;;;5062555;28;20020;-37
2023/12/25 00:34:48;;;;;;;7.72;1.80;;;13.40;99.90;;;;;;5062697;28;20052;-37
2023/12/25 00:37:14;;;;;;;7.68;1.95;;;13.40;99.90;;;;;;5061607;28;20435;-37
2023/12/25 00:39:39;;;;;;;9.73;1.83;;;13.40;99.90;;;;;;5061542;28;20483;-37
2023/12/25 00:42:05;;;;;;;5.65;1.38;;;13.40;99.90;;;;;;5061681;28;20371;-37
2023/12/25 00:44:31;;;;;;;7.07;1.60;;;13.40;99.90;;;;;;5062051;28;20111;-37
2023/12/25 00:46:56;;;;;;;5.70;1.83;;;13.40;99.90;;;;;;5062219;28;20521;-37
2023/12/25 00:49:22;;;;;;;4.10;1.52;;;13.40;99.90;;;;;;5061114;28;20036;-37
2023/12/25 00:51:47;;;;;;;5.70;1.60;;;13.40;99.90;;;;;;5062246;28;20119;-36
2023/12/25 00:54:13;;;;;;;3.83;1.58;;;13.40;99.90;;;;;;5061527;28;20891;-37
2023/12/25 00:56:39;;;;;;;8.80;1.75;;;13.30;99.90;;;;;;5061608;28;20427;-37
2023/12/25 00:59:04;;;;;;;4.38;1.42;;;13.30;99.90;;;;;;5061592;28;20052;-37
2023/12/25 01:01:30;;;;;;;8.52;1.70;;;13.30;99.90;;;;;;5061354;28;20025;-37
2023/12/25 01:03:55;;;;;;;6.47;2.20;;;13.20;99.90;;;;;;5061444;28;20741;-37
2023/12/25 01:06:21;;;;;;;8.77;1.63;;;13.20;99.90;;;;;;5061294;28;20671;-37
2023/12/25 01:08:47;;;;;;;7.07;1.63;;;13.10;99.90;;;;;;5061997;28;20028;-37
2023/12/25 01:11:13;;;;;;;6.00;1.80;;;13.10;99.90;;;;;;5060906;28;20717;-37
2023/12/25 01:13:38;;;;;;;7.28;1.73;;;13.00;99.90;;;;;;5061605;28;20020;-38
2023/12/25 01:16:04;;;;;;;7.88;2.17;;;13.00;99.90;;;;;;5061470;28;20399;-37
2023/12/25 01:18:29;;;;;;;7.82;1.75;;;12.90;99.90;;;;;;5060819;28;20837;-37
2023/12/25 01:20:55;;;;;;;4.38;1.20;;;12.90;99.90;;;;;;5061285;28;20438;-38
2023/12/25 01:23:21;;;;;;;5.35;1.38;;;12.80;99.90;;;;;;5061984;28;20020;-37
2023/12/25 01:25:46;;;;;;;4.55;1.30;;;12.80;99.90;;;;;;5060798;28;20051;-37
2023/12/25 01:28:12;;;;;;;3.08;1.00;;;12.80;99.90;;;;;;5061217;28;20024;-36
2023/12/25 01:30:38;;;;;;;5.85;1.63;;;12.80;99.90;;;;;;5060633;28;20639;-37
2023/12/25 01:33:03;;;;;;;4.22;1.20;;;12.70;99.90;;;;;;5060255;28;20017;-36
2023/12/25 01:35:29;;;;;;;7.22;1.85;;;12.80;99.90;;;;;;5060384;28;20029;-36
2023/12/25 01:37:54;;;;;;;4.97;1.42;;;12.70;99.90;;;;;;5061345;28;20131;-37
2023/12/25 01:40:21;;;;;;;6.93;2.05;;;12.70;99.90;;;;;;5060753;28;20479;-37
2023/12/25 01:42:47;;;;;;;8.10;1.95;;;12.70;99.90;;;;;;5061101;28;20132;-36
2023/12/25 01:45:13;;;;;;;4.53;2.10;;;12.70;99.90;;;;;;5060720;28;20025;-37
2023/12/25 01:47:39;;;;;;;5.65;1.42;;;12.70;99.90;;;;;;5060489;28;20741;-36
2023/12/25 01:50:06;;;;;;;5.97;1.55;;;12.70;99.90;;;;;;5061362;28;20079;-37
2023/12/25 01:52:32;;;;;;;6.88;1.73;;;12.70;99.90;;;;;;5060854;28;20131;-36
2023/12/25 01:54:59;;;;;;;5.40;2.17;;;12.70;99.90;;;;;;5061060;28;20385;-36
2023/12/25 01:57:26;;;;;;;5.07;1.45;;;12.60;99.90;;;;;;5060740;28;20031;-36
2023/12/25 01:59:51;;;;;;;5.60;1.35;;;12.60;99.90;;;;;;5059337;28;20704;-36
2023/12/25 02:02:20;;;;;;;4.63;1.10;;;12.50;99.90;;;;;;5059844;28;20036;-37
2023/12/25 02:04:46;;;;;;;5.20;0.95;;;12.40;99.90;;;;;;5060722;28;20125;-36
2023/12/25 02:07:15;;;;;;;4.22;0.82;;;12.30;99.90;;;;;;5059333;28;20468;-36
2023/12/25 02:09:40;;;;;;;1.80;0.70;;;12.30;99.90;;;;;;5060365;28;20044;-36
2023/12/25 02:12:06;;;;;;;2.55;0.70;;;12.10;99.90;;;;;;5060466;28;20044;-36
2023/12/25 02:14:32;;;;;;;2.95;0.70;;;12.00;99.90;;;;;;5059597;28;20474;-36
2023/12/25 02:16:58;;;;;;;2.00;0.63;;;11.90;99.90;;;;;;5059408;28;20029;-37
2023/12/25 02:19:32;;;;;;;1.58;0.60;;;11.80;99.90;;;;;;5060179;28;20058;-36
2023/12/25 02:22:01;;;;;;;2.45;0.68;;;11.70;99.90;;;;;;5061312;28;20025;-36
2023/12/25 02:24:30;;;;;;;2.42;0.65;;;11.60;99.90;;;;;;5061799;28;20032;-37
2023/12/25 02:26:56;;;;;;;1.85;0.50;;;11.60;99.90;;;;;;5059735;28;20032;-36
2023/12/25 02:29:22;;;;;;;2.35;0.50;;;11.50;99.90;;;;;;5059233;28;20028;-36
2023/12/25 02:31:48;;;;;;;1.58;0.55;;;11.50;99.90;;;;;;5059902;28;20016;-36
2023/12/25 02:34:14;;;;;;;2.00;0.50;;;11.50;99.90;;;;;;5060155;28;20820;-36
2023/12/25 02:36:40;;;;;;;1.77;0.60;;;11.50;99.90;;;;;;5059369;28;20098;-36
2023/12/25 02:39:06;;;;;;;3.72;0.90;;;11.50;99.90;;;;;;5058749;28;20430;-36
2023/12/25 02:41:31;;;;;;;3.00;0.80;;;11.50;99.90;;;;;;5059576;28;20433;-36
2023/12/25 02:43:57;;;;;;;3.20;0.85;;;11.60;99.90;;;;;;5057114;28;20020;-36
2023/12/25 02:46:22;;;;;;;3.67;1.20;;;11.60;99.90;;;;;;5059862;28;20055;-37
2023/12/25 02:48:48;;;;;;;5.70;1.35;;;11.70;99.90;;;;;;5058929;28;20476;-36
2023/12/25 02:51:14;;;;;;;5.80;1.50;;;11.80;99.90;;;;;;5060206;28;20596;-36
2023/12/25 02:53:39;;;;;;;7.90;1.40;;;11.80;99.90;;;;;;5059687;28;20044;-37
2023/12/25 02:56:05;;;;;;;6.60;1.55;;;11.90;99.90;;;;;;5058766;28;20064;-36
2023/12/25 02:58:33;;;;;;;7.82;1.48;;;12.00;99.90;;;;;;5059021;28;20124;-36
2023/12/25 03:00:59;;;;;;;10.77;1.98;;;12.10;99.90;;;;;;5059397;28;20591;-37
2023/12/25 03:03:24;;;;;;;7.28;1.58;;;12.20;99.90;;;;;;5058912;28;20027;-37
2023/12/25 03:05:50;;;;;;;8.80;2.15;;;12.20;99.90;;;;;;5059837;28;20372;-36
2023/12/25 03:08:16;;;;;;;9.00;2.53;;;12.20;99.90;;;;;;5059345;28;20072;-36
2023/12/25 03:10:42;;;;;;;5.85;1.70;;;12.30;99.90;;;;;;5058773;28;20029;-36
2023/12/25 03:13:07;;;;;;;10.18;1.80;;;12.30;99.90;;;;;;5059800;28;20534;-36
2023/12/25 03:15:34;;;;;;;8.15;2.15;;;12.30;99.90;;;;;;5059258;28;20056;-36
2023/12/25 03:18:00;;;;;;;5.68;1.73;;;12.40;99.90;;;;;;5058839;28;20191;-36
2023/12/25 03:20:25;;;;;;;6.93;1.90;;;12.40;99.90;;;;;;5059144;28;20028;-37
2023/12/25 03:22:51;;;;;;;7.28;1.90;;;12.40;99.90;;;;;;5059242;28;20023;-36
2023/12/25 03:25:17;;;;;;;6.03;1.75;;;12.40;99.90;;;;;;5058490;28;20052;-36
2023/12/25 03:27:45;;;;;;;6.68;1.75;;;12.40;99.90;;;;;;5058948;28;20024;-36
2023/12/25 03:30:11;;;;;;;9.63;2.03;;;12.40;99.90;;;;;;5058478;28;20149;-37
2023/12/25 03:32:36;;;;;;;9.55;2.10;;;12.40;99.90;;;;;;5058339;28;20419;-36
2023/12/25 03:35:02;;;;;;;8.32;2.00;;;12.40;99.90;;;;;;5058828;28;20032;-36
2023/12/25 03:37:28;;;;;;;7.70;1.80;;;12.50;99.90;;;;;;5058877;28;20027;-36
2023/12/25 03:39:53;;;;;;;12.48;2.30;;;12.50;99.90;;;;;;5058098;28;20051;-36
2023/12/25 03:42:19;;;;;;;7.78;1.80;;;12.40;99.90;;;;;;5059078;28;20504;-37
2023/12/25 03:44:45;;;;;;;10.35;2.15;;;12.50;99.90;;;;;;5059821;28;20451;-36
2023/12/25 03:47:11;;;;;;;8.10;1.90;;;12.50;99.90;;;;;;5058335;28;20035;-36
2023/12/25 03:49:37;;;;;;;8.32;2.05;;;12.50;99.90;;;;;;5059184;28;20028;-37
2023/12/25 03:52:03;;;;;;;11.45;2.00;;;12.50;99.90;;;;;;5058760;28;20038;-37
2023/12/25 03:54:29;;;;;;;11.57;2.42;;;12.50;99.90;;;;;;5058932;28;20090;-36
2023/12/25 03:56:55;;;;;;;10.98;1.90;;;12.60;99.90;;;;;;5062783;28;20033;-37
2023/12/25 03:59:21;;;;;;;7.45;2.25;;;12.50;99.90;;;;;;5062444;28;20017;-36
2023/12/25 04:01:46;;;;;;;7.50;2.38;;;12.60;99.90;;;;;;5060262;28;20032;-38
2023/12/25 04:04:12;;;;;;;5.85;1.60;;;12.60;99.90;;;;;;5063061;28;20021;-37
2023/12/25 04:06:38;;;;;;;7.82;1.63;;;12.60;99.90;;;;;;5061942;28;20543;-37
2023/12/25 04:09:06;;;;;;;5.32;1.52;;;12.60;99.90;;;;;;5061715;28;20095;-37
2023/12/25 04:11:32;;;;;;;8.05;1.65;;;12.60;99.90;;;;;;5060918;28;20024;-38
2023/12/25 04:13:58;;;;;;;6.57;1.65;;;12.60;99.90;;;;;;5061270;28;20016;-37
2023/12/25 04:16:25;;;;;;;8.50;1.95;;;12.60;99.90;;;;;;5060927;28;20028;-37
2023/12/25 04:18:54;;;;;;;7.38;2.08;;;12.60;99.90;;;;;;5061595;28;20089;-36
2023/12/25 04:21:33;;;;;;;8.35;1.75;;;12.60;99.90;;;;;;5060410;28;20012;-37
2023/12/25 04:24:01;;;;;;;9.90;2.00;;;12.60;99.90;;;;;;5061539;28;20143;-37
2023/12/25 04:26:29;;;;;;;8.52;2.10;;;12.60;99.90;;;;;;5062462;28;20028;-38
2023/12/25 04:28:54;;;;;;;10.00;1.88;;;12.50;99.90;;;;;;5062213;28;20059;-37
2023/12/25 04:31:20;;;;;;;9.10;1.80;;;12.60;99.90;;;;;;5062889;28;20115;-36
2023/12/25 04:33:46;;;;;;;10.30;1.83;;;12.60;99.90;;;;;;5063302;28;20025;-36
2023/12/25 04:36:14;;;;;;;3.90;1.48;;;12.60;99.90;;;;;;5062338;28;20566;-37
2023/12/25 04:38:40;;;;;;;5.45;1.40;;;12.60;99.90;;;;;;5061855;28;20032;-36
2023/12/25 04:41:05;;;;;;;10.13;2.17;;;12.60;99.90;;;;;;5061772;28;20029;-36
2023/12/25 04:43:31;;;;;;;7.35;2.08;;;12.60;99.90;;;;;;5062458;28;20013;-37
2023/12/25 04:45:57;;;;;;;7.03;1.70;;;12.60;99.90;;;;;;5062298;28;20021;-37
2023/12/25 04:48:23;;;;;;;8.15;2.42;;;12.60;99.90;;;;;;5061111;28;20024;-39
2023/12/25 04:50:48;;;;;;;7.57;2.20;;;12.60;99.90;;;;;;5062435;28;20059;-36
2023/12/25 04:53:14;;;;;;;10.07;1.58;;;12.70;99.90;;;;;;5061789;28;20656;-37
2023/12/25 04:55:40;;;;;;;7.10;1.90;;;12.70;99.90;;;;;;5061746;28;20179;-37
2023/12/25 04:58:06;;;;;;;7.60;2.33;;;12.70;99.90;;;;;;5061576;28;20837;-37
2023/12/25 05:00:32;;;;;;;8.73;2.00;;;12.70;99.90;;;;;;5062214;28;20029;-37
2023/12/25 05:02:58;;;;;;;7.30;1.90;;;12.70;99.90;;;;;;5060756;28;20036;-38
2023/12/25 05:05:30;;;;;;;5.00;1.52;;;12.70;99.90;;;;;;5061459;28;20032;-37
2023/12/25 05:07:55;;;;;;;9.97;1.77;;;12.70;99.90;;;;;;5060074;28;20032;-38
2023/12/25 05:10:21;;;;;;;7.13;1.50;;;12.70;99.90;;;;;;5060535;28;20041;-37
2023/12/25 05:12:47;;;;;;;5.93;1.48;;;12.70;99.90;;;;;;5061987;28;20096;-38
2023/12/25 05:15:12;;;;;;;5.43;1.73;;;12.70;99.90;;;;;;5062753;28;20353;-38
2023/12/25 05:17:38;;;;;;;5.35;1.67;;;12.70;99.90;;;;;;5062248;28;20490;-37
2023/12/25 05:20:04;;;;;;;4.57;1.48;;;12.80;99.90;;;;;;5062009;28;20673;-36
2023/12/25 05:22:30;;;;;;;4.05;1.20;;;12.80;99.90;;;;;;5062002;28;20077;-38
2023/12/25 05:24:55;;;;;;;6.95;1.48;;;12.80;99.90;;;;;;5061232;28;20020;-38
2023/12/25 05:27:21;;;;;;;8.50;2.33;;;12.70;99.90;;;;;;5060772;28;20043;-37
2023/12/25 05:29:47;;;;;;;5.47;1.65;;;12.70;99.90;;;;;;5061555;28;20758;-38
2023/12/25 05:32:12;;;;;;;7.43;1.73;;;12.70;99.90;;;;;;5060599;28;20028;-37
2023/12/25 05:34:38;;;;;;;6.82;1.58;;;12.70;99.90;;;;;;5060856;28;20556;-37
2023/12/25 05:37:04;;;;;;;5.18;1.15;;;12.60;99.90;;;;;;5060881;28;20028;-37
2023/12/25 05:39:29;;;;;;;3.67;1.05;;;12.50;99.90;;;;;;5059871;28;20032;-37
2023/12/25 05:41:55;;;;;;;2.20;0.90;;;12.50;99.90;;;;;;5060867;28;20037;-38
2023/12/25 05:44:20;;;;;;;5.45;1.20;;;12.40;99.90;;;;;;5060734;28;20032;-37
2023/12/25 05:46:47;;;;;;;4.90;1.25;;;12.40;99.90;;;;;;5060727;28;20100;-39
2023/12/25 05:49:15;;;;;;;10.35;1.70;;;12.40;99.90;;;;;;5060294;28;20582;-37
2023/12/25 05:51:41;;;;;;;5.57;1.60;;;12.40;99.90;;;;;;5060291;28;20040;-37
2023/12/25 05:54:06;;;;;;;5.07;1.50;;;12.40;99.90;;;;;;5060396;28;20040;-37
2023/12/25 05:56:32;;;;;;;6.22;1.70;;;12.50;99.90;;;;;;5060630;28;20812;-37
2023/12/25 05:58:58;;;;;;;7.72;1.70;;;12.50;99.90;;;;;;5059933;28;20074;-37
2023/12/25 06:01:25;;;;;;;5.88;1.70;;;12.50;99.90;;;;;;5060493;28;20032;-37
2023/12/25 06:03:51;;;;;;;6.07;1.80;;;12.50;99.90;;;;;;5059999;28;20070;-38
2023/12/25 06:06:17;;;;;;;6.68;1.83;;;12.50;99.90;;;;;;5060299;28;20028;-37
2023/12/25 06:08:43;;;;;;;4.20;1.58;;;12.50;99.90;;;;;;5060675;28;20108;-37
2023/12/25 06:11:08;;;;;;;8.27;2.00;;;12.50;99.90;;;;;;5059931;28;20047;-36
2023/12/25 06:13:34;;;;;;;6.68;1.52;;;12.50;99.90;;;;;;5059309;28;20058;-37
2023/12/25 06:16:00;;;;;;;5.82;1.60;;;12.50;99.90;;;;;;5060207;28;20544;-38
2023/12/25 06:18:26;;;;;;;6.32;1.58;;;12.60;99.90;;;;;;5060516;28;20086;-36
2023/12/25 06:20:51;;;;;;;5.40;1.75;;;12.50;99.90;;;;;;5059433;28;20071;-37
2023/12/25 06:23:17;;;;;;;4.72;1.70;;;12.50;99.90;;;;;;5060268;28;20147;-37
2023/12/25 06:25:42;;;;;;;4.60;1.42;;;12.50;99.90;;;;;;5059789;28;20051;-38
2023/12/25 06:28:09;;;;;;;5.05;1.70;;;12.50;99.90;;;;;;5059921;28;20551;-38
2023/12/25 06:30:34;;;;;;;4.82;1.73;;;12.50;99.90;;;;;;5059465;28;20399;-37
2023/12/25 06:33:00;;;;;;;5.35;1.60;;;12.50;99.90;;;;;;5059500;28;20546;-38
2023/12/25 06:35:26;;;;;;;4.78;1.33;;;12.50;99.90;;;;;;5059323;28;20028;-37
2023/12/25 06:37:51;;;;;;;3.08;1.40;;;12.50;99.90;;;;;;5059478;28;20021;-42
2023/12/25 06:40:17;;;;;;;3.42;1.10;;;12.50;99.90;;;;;;5059907;28;20029;-37
2023/12/25 06:42:42;;;;;;;3.00;0.90;;;12.50;99.90;;;;;;5059605;28;20032;-37
2023/12/25 06:45:08;;;;;;;2.80;1.10;;;12.50;99.90;;;;;;5059961;28;20151;-37
2023/12/25 06:47:34;;;;;;;2.15;0.90;;;12.40;99.90;;;;;;5059274;28;20029;-37
2023/12/25 06:50:00;;;;;;;4.25;1.00;;;12.40;99.90;;;;;;5059402;28;20906;-37
2023/12/25 06:52:26;;;;;;;2.90;1.00;;;12.40;99.90;;;;;;5059877;28;20539;-37
2023/12/25 06:54:51;;;;;;;1.00;0.60;;;12.40;99.90;;;;;;5058882;28;20110;-37
2023/12/25 06:57:17;;;;;;;2.85;0.70;;;12.30;99.90;;;;;;5058874;28;20703;-37
2023/12/25 06:59:44;;;;;;;2.33;0.60;;;12.30;99.90;;;;;;5059079;28;20546;-37
2023/12/25 07:02:09;;;;;;;2.55;0.70;;;12.30;99.90;;;;;;5058121;28;20067;-37
2023/12/25 07:04:36;;;;;;;3.20;1.00;;;12.30;99.90;;;;;;5058618;28;20135;-38
2023/12/25 07:07:02;;;;;;;2.53;1.00;;;12.30;99.90;;;;;;5059211;28;20020;-37
2023/12/25 07:09:27;;;;;;;2.42;1.08;;;12.30;99.90;;;;;;5058001;28;20091;-36
2023/12/25 07:11:53;;;;;;;1.88;0.80;;;12.20;99.90;;;;;;5058600;28;20593;-36
2023/12/25 07:14:19;;;;;;;4.00;0.85;;;12.20;99.90;;;;;;5059602;28;20028;-37
2023/12/25 07:16:44;;;;;;;1.40;0.60;;;12.20;99.90;;;;;;5059180;28;20123;-38
2023/12/25 07:19:10;;;;;;;1.75;0.60;;;12.10;99.90;;;;;;5059430;28;20035;-36
2023/12/25 07:21:36;;;;;;;2.05;0.60;;;12.10;99.90;;;;;;5058689;28;20035;-37
2023/12/25 07:24:01;;;;;;;0.63;0.43;;;12.10;99.90;;;;;;5059228;28;20111;-37
2023/12/25 07:26:28;;;;;;;1.73;0.50;;;12.10;99.90;;;;;;5058981;28;20070;-37
2023/12/25 07:28:54;;;;;;;2.05;0.70;;;12.10;99.90;;;;;;5059425;28;20033;-36
2023/12/25 07:31:20;;;;;;;1.80;0.50;;;12.10;99.90;;;;;;5062590;28;20067;-37
2023/12/25 07:33:47;;;;;;;1.58;1.02;;;12.10;99.90;;;;;;5064141;28;20593;-36
2023/12/25 07:36:12;;;;;;;0.50;0.38;;;12.10;99.90;;;;;;5063987;28;20032;-36
2023/12/25 07:38:38;;;;;;;1.00;0.50;;;12.10;99.90;;;;;;5062668;28;20337;-37
2023/12/25 07:41:10;;;;;;;1.45;0.50;;;12.10;99.90;;;;;;5063571;28;20122;-37
2023/12/25 07:43:36;;;;;;;1.48;0.50;;;12.00;99.90;;;;;;5063660;28;20060;-37
2023/12/25 07:46:09;;;;;;;0.95;0.63;;;12.00;99.90;;;;;;5063633;28;20483;-37
2023/12/25 07:48:35;;;;;;;2.03;0.75;;;12.00;99.90;;;;;;5063719;28;20095;-36
2023/12/25 07:51:01;;;;;;;2.50;0.63;;;12.00;99.90;;;;;;5063662;28;20820;-36
2023/12/25 07:53:27;;;;;;;0.93;0.60;;;12.00;99.90;;;;;;5062205;28;20052;-37
2023/12/25 07:55:52;;;;;;;1.27;0.40;;;12.00;99.90;;;;;;5063625;28;20134;-37
2023/12/25 07:58:18;;;;;;;2.78;0.60;;;12.00;99.90;;;;;;5061620;28;20501;-36
2023/12/25 08:00:48;;;;;;;2.40;0.55;;;12.00;99.90;;;;;;5062746;28;20029;-37
2023/12/25 08:03:13;;;;;;;1.98;0.45;;;12.00;99.90;;;;;;5062617;28;20077;-36
2023/12/25 08:05:40;;;;;;;0.65;0.40;;;12.00;99.90;;;;;;5062677;28;20036;-38
2023/12/25 08:08:06;;;;;;;2.25;0.60;;;12.00;99.90;;;;;;5063551;28;20127;-36
2023/12/25 08:10:32;;;;;;;1.10;0.50;;;12.00;99.90;;;;;;5051956;28;20036;-36
2023/12/25 08:13:02;;;;;;;2.25;0.55;;;12.00;99.90;;;;;;5062800;28;20027;-36
2023/12/25 08:15:31;;;;;;;2.95;0.40;;;12.00;99.90;;;;;;5062206;28;20432;-36
2023/12/25 08:17:56;;;;;;;1.13;0.50;;;12.00;99.90;;;;;;5062753;28;20184;-36
2023/12/25 08:20:22;;;;;;;4.22;0.70;;;12.00;99.90;;;;;;5061342;28;20389;-36
2023/12/25 08:22:48;;;;;;;1.80;0.60;;;12.00;99.90;;;;;;5062553;28;20082;-36
2023/12/25 08:25:14;;;;;;;2.35;0.52;;;12.10;99.90;;;;;;5061573;28;20028;-36
2023/12/25 08:27:39;;;;;;;2.45;0.70;;;12.00;99.90;;;;;;5060733;28;20099;-36
2023/12/25 08:30:05;;;;;;;0.90;0.50;;;12.10;99.90;;;;;;5061725;28;20128;-36
2023/12/25 08:32:31;;;;;;;1.77;0.55;;;12.10;99.90;;;;;;5062096;28;20060;-37
2023/12/25 08:34:57;;;;;;;1.50;0.55;;;12.10;99.90;;;;;;5061245;28;20119;-38
2023/12/25 08:37:22;;;;;;;0.77;0.50;;;12.10;99.90;;;;;;5061591;28;20850;-36
2023/12/25 08:39:48;;;;;;;1.02;0.50;;;12.10;99.90;;;;;;5061701;28;20116;-37
2023/12/25 08:42:15;;;;;;;0.93;0.75;;;12.10;99.90;;;;;;5059977;28;20074;-36
2023/12/25 08:44:41;;;;;;;1.83;0.40;;;12.10;99.90;;;;;;5061344;28;20052;-36
2023/12/25 08:47:07;;;;;;;1.58;0.68;;;12.10;99.90;;;;;;5062012;28;20112;-36
2023/12/25 08:49:33;;;;;;;1.70;0.60;;;12.10;99.90;;;;;;5060684;28;20017;-36
2023/12/25 08:51:58;;;;;;;0.88;0.50;;;12.10;99.90;;;;;;5061049;28;20075;-37
2023/12/25 08:54:24;;;;;;;3.95;1.45;;;12.10;99.90;;;;;;5061012;28;20902;-36
2023/12/25 08:56:53;;;;;;;2.63;0.70;;;12.10;99.90;;;;;;5061059;28;20036;-36
2023/12/25 08:59:18;;;;;;;1.15;0.60;;;12.10;99.90;;;;;;5061688;28;20533;-37
2023/12/25 09:01:44;;;;;;;2.95;1.23;;;12.20;99.90;;;;;;5063425;28;20043;-37
2023/12/25 09:04:10;;;;;;;2.30;1.08;;;12.20;99.90;;;;;;5061000;28;20020;-37
2023/12/25 09:06:35;;;;;;;3.40;1.10;;;12.20;99.90;;;;;;5061365;28;20021;-37
2023/12/25 09:09:01;;;;;;;1.38;0.65;;;12.20;99.90;;;;;;5060678;28;20027;-36
2023/12/25 09:11:27;;;;;;;2.83;1.20;;;12.20;99.90;;;;;;5061047;28;20392;-37
2023/12/25 09:13:53;;;;;;;2.25;0.75;;;12.10;99.90;;;;;;5061145;28;20025;-36
2023/12/25 09:16:18;;;;;;;2.53;1.10;;;12.20;99.90;;;;;;5061317;28;20388;-37
2023/12/25 09:18:44;;;;;;;4.93;1.33;;;12.20;99.90;;;;;;5061990;28;20371;-37
2023/12/25 09:21:10;;;;;;;2.83;1.05;;;12.10;99.90;;;;;;5061571;28;20089;-37
2023/12/25 09:23:36;;;;;;;1.30;1.00;;;12.20;99.90;;;;;;5060601;28;20044;-37
2023/12/25 09:26:04;;;;;;;1.00;0.80;;;12.20;99.90;;;;;;5061219;28;20115;-38
2023/12/25 09:28:30;;;;;;;2.22;1.08;;;12.20;99.90;;;;;;5061650;28;20063;-37
2023/12/25 09:30:56;;;;;;;3.88;1.20;;;12.20;99.90;;;;;;5060330;28;20119;-37
2023/12/25 09:33:24;;;;;;;1.55;1.20;;;12.20;99.90;;;;;;5060446;28;20032;-37
2023/12/25 09:35:50;;;;;;;1.50;0.90;;;12.20;99.90;;;;;;5060335;28;20497;-38
2023/12/25 09:38:15;;;;;;;1.70;1.00;;;12.30;99.90;;;;;;5060111;28;20541;-37
2023/12/25 09:40:41;;;;;;;2.63;1.45;;;12.30;99.90;;;;;;5060652;28;20024;-37
2023/12/25 09:43:07;;;;;;;2.88;1.45;;;12.20;99.90;;;;;;5060455;28;20132;-37
2023/12/25 09:45:36;;;;;;;2.38;1.63;;;12.30;99.90;;;;;;5059659;28;20032;-36
2023/12/25 09:48:02;;;;;;;1.90;1.27;;;12.30;99.90;;;;;;5060766;28;20028;-36
2023/12/25 09:50:30;;;;;;;1.70;1.00;;;12.30;99.90;;;;;;5073721;28;20087;-37
2023/12/25 09:52:55;;;;;;;1.27;1.00;;;12.30;99.90;;;;;;5062084;28;20028;-37
2023/12/25 09:55:21;;;;;;;1.45;1.00;;;12.30;99.90;;;;;;5061033;28;20086;-36
2023/12/25 09:57:47;;;;;;;1.33;0.63;;;12.40;99.90;;;;;;5060011;28;20055;-36
2023/12/25 10:00:13;;;;;;;2.00;0.70;;;12.40;99.90;;;;;;5060669;28;20021;-37
2023/12/25 10:02:48;;;;;;;3.20;0.70;;;12.40;99.90;;;;;;5060177;28;20521;-36
2023/12/25 10:05:15;;;;;;;1.75;0.73;;;12.40;99.90;;;;;;5060206;28;20108;-37
2023/12/25 10:07:41;;;;;;;1.55;0.60;;;12.40;99.90;;;;;;5058424;28;20582;-37
2023/12/25 10:10:09;;;;;;;0.80;0.60;;;12.50;99.90;;;;;;5061138;28;20071;-37
2023/12/25 10:12:34;;;;;;;1.25;0.60;;;12.50;99.90;;;;;;5059604;28;20021;-37
2023/12/25 10:15:00;;;;;;;0.82;0.60;;;12.50;99.90;;;;;;5059915;28;20055;-37
2023/12/25 10:17:25;;;;;;;1.25;0.60;;;12.50;99.90;;;;;;5059778;28;20108;-36
2023/12/25 10:19:53;;;;;;;0.90;0.60;;;12.50;99.90;;;;;;5059715;28;20032;-37
2023/12/25 10:22:32;;;;;;;2.38;0.70;;;12.60;99.90;;;;;;5059865;28;20024;-38
2023/12/25 10:25:10;;;;;;;1.48;0.50;;;12.50;99.90;;;;;;5059888;28;20384;-37
2023/12/25 10:27:40;;;;;;;3.05;0.90;;;12.50;99.90;;;;;;5059036;28;20017;-37
2023/12/25 10:30:24;;;;;;;1.13;0.80;;;12.50;99.90;;;;;;5059719;28;20152;-37
2023/12/25 10:33:12;;;;;;;1.38;0.80;;;12.50;99.90;;;;;;5060073;28;20039;-37
2023/12/25 10:35:39;;;;;;;1.45;0.65;;;12.50;99.90;;;;;;5051973;28;20026;-37
2023/12/25 10:38:06;;;;;;;1.52;0.60;;;12.50;99.90;;;;;;5060714;28;20032;-37
2023/12/25 10:40:32;;;;;;;1.10;0.60;;;12.50;99.90;;;;;;5048144;28;20024;-37
2023/12/25 10:42:58;;;;;;;0.80;0.50;;;12.40;99.90;;;;;;5059974;28;20075;-37
2023/12/25 10:45:26;;;;;;;0.90;0.70;;;12.50;99.90;;;;;;5060477;28;20020;-37
2023/12/25 10:47:53;;;;;;;1.08;0.50;;;12.50;99.90;;;;;;5059727;28;20025;-37
2023/12/25 10:50:20;;;;;;;2.15;0.82;;;12.50;99.90;;;;;;5059492;28;20020;-36
2023/12/25 10:52:51;;;;;;;1.67;0.70;;;12.50;99.90;;;;;;5059995;28;20032;-36
2023/12/25 10:55:25;;;;;;;1.58;0.63;;;12.50;99.90;;;;;;5059804;28;20090;-37
2023/12/25 10:57:52;;;;;;;0.82;0.60;;;12.50;99.90;;;;;;5060548;28;20020;-37
2023/12/25 11:00:20;;;;;;;1.15;0.50;;;12.50;99.90;;;;;;5060758;28;20032;-37
2023/12/25 11:02:48;;;;;;;1.95;0.70;;;12.50;99.90;;;;;;5059485;28;20032;-37
2023/12/25 11:05:13;;;;;;;1.30;0.70;;;12.50;99.90;;;;;;5058447;28;20108;-36
2023/12/25 11:07:39;;;;;;;1.65;0.80;;;12.50;99.90;;;;;;5059162;28;20039;-38
2023/12/25 11:10:07;;;;;;;1.38;0.80;;;12.50;99.90;;;;;;5059357;28;20594;-37
2023/12/25 11:12:35;;;;;;;2.58;0.80;;;12.50;99.90;;;;;;5059885;28;20027;-37
2023/12/25 11:15:01;;;;;;;2.17;0.80;;;12.50;99.90;;;;;;5060074;28;20054;-37
2023/12/25 11:17:27;;;;;;;0.82;0.50;;;12.50;99.90;;;;;;5059425;28;20035;-37
2023/12/25 11:19:52;;;;;;;1.88;0.77;;;12.60;99.90;;;;;;5059932;28;20033;-37
2023/12/25 11:22:29;;;;;;;2.20;0.98;;;12.60;99.90;;;;;;5060058;28;20059;-37
2023/12/25 11:25:00;;;;;;;2.00;0.65;;;12.70;99.90;;;;;;5059338;28;20035;-37
2023/12/25 11:27:26;;;;;;;1.20;0.70;;;12.70;99.90;;;;;;5059255;28;20036;-37
2023/12/25 11:29:54;;;;;;;2.28;1.48;;;12.70;99.90;;;;;;5059019;28;20399;-38
2023/12/25 11:32:22;;;;;;;2.55;0.63;;;12.70;99.90;;;;;;5059258;28;20021;-39
2023/12/25 11:34:49;;;;;;;2.33;0.50;;;12.80;99.90;;;;;;5059629;28;20059;-38
2023/12/25 11:37:19;;;;;;;2.90;0.80;;;12.80;99.90;;;;;;5059648;28;20033;-38
2023/12/25 11:40:07;;;;;;;2.08;0.90;;;12.80;99.90;;;;;;5059417;28;20028;-37
2023/12/25 11:42:34;;;;;;;1.15;0.65;;;12.80;99.90;;;;;;5058697;28;20401;-37
2023/12/25 11:45:01;;;;;;;1.63;0.60;;;12.80;99.90;;;;;;5058835;28;20035;-38
2023/12/25 11:47:39;;;;;;;1.95;0.80;;;12.80;99.90;;;;;;5059069;28;20028;-39
2023/12/25 11:50:06;;;;;;;1.67;0.80;;;12.80;99.90;;;;;;5059563;28;20048;-37
2023/12/25 11:53:04;;;;;;;1.15;0.60;;;12.80;99.90;;;;;;5058942;28;20077;-49
2023/12/25 11:55:30;;;;;;;2.55;0.70;;;12.80;99.90;;;;;;5059234;28;20463;-38
2023/12/25 11:57:58;;;;;;;1.98;0.70;;;12.80;99.90;;;;;;5058647;28;20027;-38
2023/12/25 12:00:31;;;;;;;0.77;0.70;;;12.80;99.90;;;;;;5058313;28;20139;-37
2023/12/25 12:02:56;;;;;;;1.98;0.70;;;12.80;99.90;;;;;;5059578;28;20494;-38
2023/12/25 12:05:22;;;;;;;1.90;0.80;;;12.70;99.90;;;;;;5058565;28;20037;-39
2023/12/25 12:07:48;;;;;;;1.02;0.60;;;12.80;99.90;;;;;;5058282;28;20409;-38
2023/12/25 12:10:14;;;;;;;2.13;0.70;;;12.70;99.90;;;;;;5059396;28;20036;-36
2023/12/25 12:12:41;;;;;;;1.42;0.68;;;12.70;99.90;;;;;;5058259;28;20028;-36
2023/12/25 12:15:08;;;;;;;0.85;0.52;;;12.70;99.90;;;;;;5059717;28;20021;-37
2023/12/25 12:17:35;;;;;;;1.55;0.85;;;12.70;99.90;;;;;;5061715;28;20761;-37
2023/12/25 12:20:02;;;;;;;2.53;0.90;;;12.60;99.90;;;;;;5062035;28;20117;-37
2023/12/25 12:22:28;;;;;;;1.80;0.50;;;12.60;99.90;;;;;;5062318;28;20542;-38
2023/12/25 12:25:13;;;;;;;1.77;0.90;;;12.60;99.90;;;;;;5062193;28;20048;-38
2023/12/25 12:27:42;;;;;;;1.73;0.68;;;12.60;99.90;;;;;;5061693;28;20111;-36
2023/12/25 12:30:08;;;;;;;0.88;0.60;;;12.60;99.90;;;;;;5061747;28;20040;-37
2023/12/25 12:32:35;;;;;;;2.20;0.85;;;12.60;99.90;;;;;;5061421;28;20035;-37
2023/12/25 12:35:01;;;;;;;1.17;0.63;;;12.50;99.90;;;;;;5062484;28;20052;-37
2023/12/25 12:37:27;;;;;;;2.38;0.80;;;12.50;99.90;;;;;;5061456;28;20132;-37
2023/12/25 12:39:52;;;;;;;1.20;0.60;;;12.50;99.90;;;;;;5061285;28;20024;-38
2023/12/25 12:42:21;;;;;;;1.88;0.70;;;12.60;99.90;;;;;;5060522;28;20031;-37